createdAt,value
2019-04-04T00:02:02.346Z,0.63
2019-04-04T00:04:32.407Z,0.57
2019-04-04T00:07:12.884Z,0.47
2019-04-04T00:09:42.261Z,0.60
2019-04-04T00:12:12.251Z,0.63
2019-04-04T00:14:54.469Z,0.50
2019-04-04T00:17:25.844Z,0.60
2019-04-04T00:20:00.915Z,0.60
2019-04-04T00:22:31.025Z,0.60
2019-04-04T00:25:00.384Z,0.73
2019-04-04T00:27:29.172Z,0.57
2019-04-04T00:29:59.084Z,0.70
2019-04-04T00:32:28.298Z,0.67
2019-04-04T00:34:59.822Z,0.60
2019-04-04T00:37:42.917Z,0.80
2019-04-04T00:40:15.373Z,0.70
2019-04-04T00:42:49.175Z,0.73
2019-04-04T00:45:20.789Z,0.73
2019-04-04T00:47:49.512Z,0.67
2019-04-04T00:50:19.549Z,0.60
2019-04-04T00:53:03.785Z,0.83
2019-04-04T00:55:39.705Z,0.63
2019-04-04T00:58:12.012Z,0.53
2019-04-04T01:00:41.528Z,0.53
2019-04-04T01:03:12.270Z,0.87
2019-04-04T01:05:42.154Z,0.60
2019-04-04T01:08:11.752Z,0.63
2019-04-04T01:10:42.725Z,0.80
2019-04-04T01:13:15.784Z,0.67
2019-04-04T01:15:46.174Z,0.67
2019-04-04T01:18:16.716Z,0.60
2019-04-04T01:20:47.009Z,0.70
2019-04-04T01:23:19.933Z,0.50
2019-04-04T01:25:54.615Z,0.50
2019-04-04T01:28:23.027Z,0.60
2019-04-04T01:30:54.670Z,0.53
2019-04-04T01:33:27.021Z,0.70
2019-04-04T01:35:58.254Z,0.60
2019-04-04T01:38:29.797Z,0.60
2019-04-04T01:41:03.957Z,0.80
2019-04-04T01:43:38.048Z,0.50
2019-04-04T01:46:09.310Z,0.50
2019-04-04T01:48:37.982Z,0.60
2019-04-04T01:51:09.577Z,0.50
2019-04-04T01:53:48.232Z,0.70
2019-04-04T01:56:19.541Z,0.60
2019-04-04T01:58:50.140Z,0.60
2019-04-04T02:01:20.593Z,0.63
2019-04-04T02:03:53.690Z,0.60
2019-04-04T02:06:24.405Z,0.60
2019-04-04T02:08:54.028Z,0.40
2019-04-04T02:11:25.889Z,0.50
2019-04-04T02:13:57.137Z,0.60
2019-04-04T02:16:26.496Z,0.57
2019-04-04T02:18:58.526Z,0.50
2019-04-04T02:21:30.224Z,0.60
2019-04-04T02:24:02.361Z,0.50
2019-04-04T02:26:31.926Z,0.70
2019-04-04T02:29:00.906Z,0.50
2019-04-04T02:31:42.356Z,0.70
2019-04-04T02:34:13.224Z,0.60
2019-04-04T02:36:48.734Z,0.47
2019-04-04T02:39:18.731Z,0.50
2019-04-04T02:41:49.741Z,0.50
2019-04-04T02:44:20.890Z,0.70
2019-04-04T02:46:51.918Z,0.60
2019-04-04T02:49:25.739Z,0.70
2019-04-04T02:51:58.620Z,0.70
2019-04-04T02:54:29.193Z,0.60
2019-04-04T02:56:59.515Z,0.80
2019-04-04T02:59:30.199Z,0.63
2019-04-04T03:01:59.616Z,0.67
2019-04-04T03:04:30.854Z,0.90
2019-04-04T03:07:01.126Z,0.70
2019-04-04T03:09:31.070Z,0.60
2019-04-04T03:12:03.093Z,0.70
2019-04-04T03:14:36.111Z,0.97
2019-04-04T03:17:05.017Z,0.80
2019-04-04T03:19:36.450Z,0.57
2019-04-04T03:22:06.645Z,0.80
2019-04-04T03:24:38.848Z,0.90
2019-04-04T03:27:06.849Z,0.60
2019-04-04T03:29:37.583Z,0.53
2019-04-04T03:32:14.630Z,0.67
2019-04-04T03:34:48.630Z,0.93
2019-04-04T03:37:14.507Z,0.63
2019-04-04T03:39:42.948Z,0.70
2019-04-04T03:42:12.544Z,0.60
2019-04-04T03:44:41.237Z,0.70
2019-04-04T03:47:12.486Z,0.60
2019-04-04T03:49:40.917Z,0.63
2019-04-04T03:52:11.416Z,1.30
2019-04-04T03:54:43.455Z,0.70
2019-04-04T03:57:12.778Z,0.97
2019-04-04T03:59:41.214Z,0.60
2019-04-04T04:02:11.930Z,0.77
2019-04-04T04:04:43.257Z,0.90
2019-04-04T04:07:15.373Z,0.90
2019-04-04T04:09:44.998Z,0.90
2019-04-04T04:12:14.443Z,0.70
2019-04-04T04:14:44.960Z,0.80
2019-04-04T04:17:15.746Z,0.70
2019-04-04T04:19:48.904Z,0.97
2019-04-04T04:22:20.401Z,0.63
2019-04-04T04:24:51.202Z,0.70
2019-04-04T04:27:24.160Z,0.80
2019-04-04T04:29:54.481Z,0.60
2019-04-04T04:32:25.996Z,0.60
2019-04-04T04:34:55.787Z,0.63
2019-04-04T04:37:26.550Z,0.70
2019-04-04T04:39:57.578Z,0.70
2019-04-04T04:42:29.035Z,0.70
2019-04-04T04:44:57.465Z,0.80
2019-04-04T04:47:28.635Z,0.63
2019-04-04T04:49:57.553Z,0.80
2019-04-04T04:52:25.974Z,0.80
2019-04-04T04:54:56.037Z,0.60
2019-04-04T04:57:30.047Z,0.70
2019-04-04T04:59:56.226Z,0.80
2019-04-04T05:02:26.466Z,0.73
2019-04-04T05:04:59.412Z,0.70
2019-04-04T05:07:30.988Z,0.97
2019-04-04T05:09:59.419Z,0.60
2019-04-04T05:12:30.479Z,0.50
2019-04-04T05:15:00.996Z,0.70
2019-04-04T05:17:31.977Z,0.60
2019-04-04T05:20:04.157Z,0.60
2019-04-04T05:22:34.422Z,0.50
2019-04-04T05:25:08.694Z,1.00
2019-04-04T05:27:45.051Z,0.87
2019-04-04T05:30:15.957Z,0.50
2019-04-04T05:32:45.163Z,0.60
2019-04-04T05:35:15.147Z,0.70
2019-04-04T05:37:48.718Z,0.63
2019-04-04T05:40:18.763Z,0.60
2019-04-04T05:42:48.854Z,0.90
2019-04-04T05:45:20.217Z,0.80
2019-04-04T05:47:50.132Z,0.70
2019-04-04T05:50:19.943Z,0.80
2019-04-04T05:52:49.816Z,0.60
2019-04-04T05:55:20.005Z,0.83
2019-04-04T05:57:50.966Z,0.83
2019-04-04T06:00:22.874Z,0.63
2019-04-04T06:02:51.308Z,0.60
2019-04-04T06:05:19.893Z,0.70
2019-04-04T06:07:51.088Z,0.97
2019-04-04T06:10:20.905Z,0.47
2019-04-04T06:12:49.320Z,0.50
2019-04-04T06:15:18.101Z,0.80
2019-04-04T06:17:48.065Z,0.40
2019-04-04T06:20:19.384Z,0.67
2019-04-04T06:22:50.028Z,0.60
2019-04-04T06:25:18.345Z,0.50
2019-04-04T06:27:51.535Z,0.80
2019-04-04T06:30:20.149Z,0.70
2019-04-04T06:32:50.706Z,0.50
2019-04-04T06:35:19.236Z,0.63
2019-04-04T06:37:51.454Z,0.80
2019-04-04T06:40:22.441Z,0.70
2019-04-04T06:42:52.078Z,0.70
2019-04-04T06:45:20.759Z,0.77
2019-04-04T06:47:52.607Z,0.70
2019-04-04T06:50:22.309Z,0.67
2019-04-04T06:52:53.094Z,0.80
2019-04-04T06:55:23.066Z,0.60
2019-04-04T06:57:51.545Z,0.53
2019-04-04T07:00:20.116Z,0.63
2019-04-04T07:02:49.209Z,0.60
2019-04-04T07:05:18.670Z,0.57
2019-04-04T07:07:48.834Z,0.80
2019-04-04T07:10:21.035Z,0.50
2019-04-04T07:12:49.008Z,0.50
2019-04-04T07:15:20.308Z,0.63
2019-04-04T07:17:50.067Z,0.70
2019-04-04T07:20:20.070Z,0.50
2019-04-04T07:22:51.296Z,0.60
2019-04-04T07:25:22.369Z,0.70
2019-04-04T07:27:52.999Z,0.50
2019-04-04T07:30:22.261Z,0.63
2019-04-04T07:32:51.260Z,0.50
2019-04-04T07:35:22.663Z,0.60
2019-04-04T07:37:56.625Z,0.57
2019-04-04T07:40:25.447Z,0.40
2019-04-04T07:42:56.888Z,0.57
2019-04-04T07:45:26.733Z,0.50
2019-04-04T07:48:00.436Z,0.50
2019-04-04T07:50:31.340Z,0.50
2019-04-04T07:53:00.011Z,0.60
2019-04-04T07:55:30.573Z,0.60
2019-04-04T07:58:04.319Z,0.70
2019-04-04T08:00:33.781Z,0.43
2019-04-04T08:03:02.881Z,0.40
2019-04-04T08:05:31.932Z,0.60
2019-04-04T08:08:03.212Z,0.57
2019-04-04T08:10:36.177Z,0.40
2019-04-04T08:13:04.867Z,0.60
2019-04-04T08:15:36.030Z,0.50
2019-04-04T08:18:06.058Z,0.50
2019-04-04T08:20:35.629Z,0.60
2019-04-04T08:23:04.048Z,0.53
2019-04-04T08:25:32.696Z,0.50
2019-04-04T08:28:03.066Z,0.50
2019-04-04T08:30:33.464Z,0.40
2019-04-04T08:33:01.910Z,0.47
2019-04-04T08:35:31.652Z,0.70
2019-04-04T08:38:00.088Z,0.60
2019-04-04T08:40:28.764Z,0.50
2019-04-04T08:42:59.845Z,0.40
2019-04-04T08:45:30.918Z,0.50
2019-04-04T08:47:59.700Z,0.40
2019-04-04T08:50:29.486Z,0.50
2019-04-04T08:52:58.111Z,0.50
2019-04-04T08:55:27.900Z,0.50
2019-04-04T08:57:56.593Z,0.43
2019-04-04T09:00:25.025Z,0.47
2019-04-04T09:02:53.433Z,0.80
2019-04-04T09:05:21.878Z,0.80
2019-04-04T09:07:50.298Z,1.70
2019-04-04T09:10:18.796Z,0.70
2019-04-04T09:12:47.206Z,1.13
2019-04-04T09:15:15.650Z,0.70
2019-04-04T09:17:44.055Z,0.97
2019-04-04T09:20:12.463Z,0.70
2019-04-04T09:22:41.216Z,0.53
2019-04-04T09:25:10.579Z,0.33
2019-04-04T09:27:39.269Z,0.80
2019-04-04T09:30:09.554Z,0.77
2019-04-04T09:32:39.434Z,0.50
2019-04-04T09:35:07.912Z,0.40
2019-04-04T09:37:36.363Z,0.50
2019-04-04T09:40:07.838Z,0.57
2019-04-04T09:42:36.765Z,0.50
2019-04-04T09:45:08.253Z,0.70
2019-04-04T09:47:36.648Z,0.40
2019-04-04T09:50:06.782Z,0.50
2019-04-04T09:52:35.194Z,0.57
2019-04-04T09:55:04.918Z,0.60
2019-04-04T09:57:33.601Z,0.60
2019-04-04T10:00:02.041Z,0.40
2019-04-04T10:02:30.446Z,0.30
2019-04-04T10:04:58.885Z,0.40
2019-04-04T10:07:27.886Z,0.93
2019-04-04T10:09:57.572Z,0.60
2019-04-04T10:12:29.588Z,0.50
2019-04-04T10:14:57.212Z,0.70
2019-04-04T10:17:25.652Z,0.60
2019-04-04T10:19:54.064Z,0.53
2019-04-04T10:22:22.505Z,0.40
2019-04-04T10:24:52.559Z,0.53
2019-04-04T10:27:21.000Z,0.53
2019-04-04T10:29:49.400Z,0.40
2019-04-04T10:32:19.314Z,0.70
2019-04-04T10:34:47.744Z,0.50
2019-04-04T10:37:16.284Z,0.30
2019-04-04T10:39:45.277Z,0.60
2019-04-04T10:42:13.699Z,0.50
2019-04-04T10:44:42.131Z,0.50
2019-04-04T10:47:10.533Z,0.30
2019-04-04T10:49:38.964Z,0.70
2019-04-04T10:52:07.381Z,0.70
2019-04-04T10:54:36.112Z,0.40
2019-04-04T10:57:04.521Z,0.50
2019-04-04T10:59:34.277Z,0.60
2019-04-04T11:02:02.709Z,0.47
2019-04-04T11:04:33.553Z,0.40
2019-04-04T11:07:02.001Z,0.30
2019-04-04T11:09:41.278Z,0.40
2019-04-04T11:12:00.504Z,0.50
2019-04-04T11:14:29.158Z,1.00
2019-04-04T11:17:00.631Z,0.67
2019-04-04T11:19:31.917Z,0.50
2019-04-04T11:22:02.631Z,0.73
2019-04-04T11:24:32.941Z,0.50
2019-04-04T11:27:02.614Z,0.30
2019-04-04T11:29:31.272Z,0.30
2019-04-04T11:32:00.031Z,0.60
2019-04-04T11:34:30.267Z,0.80
2019-04-04T11:36:58.660Z,0.33
2019-04-04T11:39:28.464Z,0.60
2019-04-04T11:41:59.472Z,0.60
2019-04-04T11:44:30.641Z,0.60
2019-04-04T11:46:58.761Z,0.57
2019-04-04T11:49:27.191Z,0.60
2019-04-04T11:51:58.206Z,0.50
2019-04-04T11:54:28.748Z,0.47
2019-04-04T11:56:57.168Z,0.60
2019-04-04T11:59:25.876Z,0.70
2019-04-04T12:01:57.896Z,0.60
2019-04-04T12:04:26.648Z,0.50
2019-04-04T12:06:56.967Z,0.40
2019-04-04T12:09:29.472Z,0.57
2019-04-04T12:11:58.877Z,0.60
2019-04-04T12:14:28.857Z,0.50
2019-04-04T12:16:57.323Z,0.60
2019-04-04T12:19:27.629Z,0.57
2019-04-04T12:21:59.533Z,0.40
2019-04-04T12:24:28.243Z,0.40
2019-04-04T12:27:00.402Z,0.60
2019-04-04T12:29:30.713Z,0.57
2019-04-04T12:32:01.548Z,0.40
2019-04-04T12:34:31.030Z,0.80
2019-04-04T12:37:03.241Z,0.50
2019-04-04T12:39:31.932Z,0.60
2019-04-04T12:42:01.631Z,0.50
2019-04-04T12:44:33.096Z,0.67
2019-04-04T12:47:07.520Z,0.57
2019-04-04T12:49:37.760Z,0.50
2019-04-04T12:52:07.578Z,0.53
2019-04-04T12:54:39.757Z,0.40
2019-04-04T12:57:12.036Z,0.57
2019-04-04T12:59:40.506Z,0.53
2019-04-04T13:02:10.645Z,0.50
2019-04-04T13:04:42.815Z,0.50
2019-04-04T13:07:16.480Z,0.40
2019-04-04T13:09:46.909Z,0.40
2019-04-04T13:12:16.616Z,0.50
2019-04-04T13:14:45.316Z,0.50
2019-04-04T13:17:18.172Z,0.60
2019-04-04T13:19:47.774Z,0.40
2019-04-04T13:22:17.450Z,0.57
2019-04-04T13:24:45.867Z,0.30
2019-04-04T13:27:16.460Z,0.60
2019-04-04T13:29:46.583Z,0.60
2019-04-04T13:32:15.399Z,0.40
2019-04-04T13:34:44.061Z,0.50
2019-04-04T13:37:12.504Z,0.63
2019-04-04T13:39:43.342Z,0.50
2019-04-04T13:42:15.341Z,0.47
2019-04-04T13:44:45.028Z,0.30
2019-04-04T13:47:21.110Z,0.27
2019-04-04T13:49:50.187Z,0.60
2019-04-04T13:52:20.300Z,0.47
2019-04-04T13:54:48.702Z,0.40
2019-04-04T13:57:21.975Z,0.30
2019-04-04T13:59:53.494Z,0.50
2019-04-04T14:05:21.799Z,0.40
2019-04-04T14:07:52.927Z,0.40
2019-04-04T14:10:21.334Z,0.60
2019-04-04T14:12:50.098Z,1.60
2019-04-04T14:15:18.801Z,1.77
2019-04-04T14:17:49.372Z,1.70
2019-04-04T14:20:18.840Z,1.10
2019-04-04T14:22:47.728Z,1.73
2019-04-04T14:25:17.321Z,1.20
2019-04-04T14:27:45.724Z,1.20
2019-04-04T14:30:14.167Z,1.50
2019-04-04T14:32:42.598Z,1.27
2019-04-04T14:35:11.014Z,1.20
2019-04-04T14:37:39.417Z,1.60
2019-04-04T14:40:08.200Z,1.30
2019-04-04T14:42:38.845Z,1.10
2019-04-04T14:45:08.955Z,1.37
2019-04-04T14:47:39.665Z,1.20
2019-04-04T14:50:08.079Z,1.30
2019-04-04T14:52:39.248Z,1.33
2019-04-04T14:55:06.568Z,1.00
2019-04-04T14:57:35.563Z,1.03
2019-04-04T15:00:10.919Z,1.00
2019-04-04T15:02:42.120Z,1.10
2019-04-04T15:05:13.005Z,1.30
2019-04-04T15:07:41.442Z,1.70
2019-04-04T15:10:09.854Z,1.27
2019-04-04T15:12:38.295Z,1.23
2019-04-04T15:15:08.341Z,1.40
2019-04-04T15:17:39.422Z,1.67
2019-04-04T15:20:09.061Z,1.27
2019-04-04T15:22:37.510Z,1.60
2019-04-04T15:25:15.781Z,2.23
2019-04-04T15:27:46.366Z,2.00
2019-04-04T15:30:16.534Z,1.67
2019-04-04T15:32:46.862Z,1.57
2019-04-04T15:35:16.265Z,1.30
2019-04-04T15:37:48.777Z,2.07
2019-04-04T15:40:21.767Z,1.30
2019-04-04T15:42:52.794Z,1.77
2019-04-04T15:45:21.234Z,1.40
2019-04-04T15:47:49.632Z,1.20
2019-04-04T15:50:19.080Z,1.83
2019-04-04T15:52:49.241Z,1.30
2019-04-04T15:55:18.207Z,1.00
2019-04-04T15:57:47.607Z,1.03
2019-04-04T16:00:16.303Z,1.10
2019-04-04T16:02:45.295Z,1.00
2019-04-04T16:05:13.948Z,0.97
2019-04-04T16:07:42.390Z,1.00
2019-04-04T16:10:13.972Z,0.93
2019-04-04T16:12:43.212Z,0.93
2019-04-04T16:15:13.513Z,1.00
2019-04-04T16:17:43.200Z,1.23
2019-04-04T16:20:15.031Z,0.83
2019-04-04T16:22:48.139Z,1.20
2019-04-04T16:25:24.162Z,0.90
2019-04-04T16:27:54.213Z,0.90
2019-04-04T16:30:24.773Z,0.93
2019-04-04T16:32:54.150Z,0.90
2019-04-04T16:35:22.571Z,0.90
2019-04-04T16:37:53.888Z,0.70
2019-04-04T16:40:22.883Z,0.83
2019-04-04T16:42:51.531Z,0.90
2019-04-04T16:45:19.983Z,0.97
2019-04-04T16:47:48.661Z,0.80
2019-04-04T16:50:22.196Z,0.63
2019-04-04T16:52:51.975Z,0.83
2019-04-04T16:55:23.525Z,0.90
2019-04-04T16:57:54.877Z,0.70
2019-04-04T17:00:26.850Z,1.00
2019-04-04T17:03:00.256Z,0.80
2019-04-04T17:05:30.301Z,0.70
2019-04-04T17:08:03.141Z,0.77
2019-04-04T17:10:31.557Z,1.00
2019-04-04T17:13:00.554Z,1.20
2019-04-04T17:15:28.961Z,1.00
2019-04-04T17:17:58.548Z,1.07
2019-04-04T17:20:28.565Z,0.90
2019-04-04T17:22:59.434Z,0.90
2019-04-04T17:25:31.329Z,0.90
2019-04-04T17:28:00.788Z,0.80
2019-04-04T17:30:31.357Z,0.73
2019-04-04T17:33:01.226Z,0.83
2019-04-04T17:35:31.825Z,0.97
2019-04-04T17:38:02.604Z,0.80
2019-04-04T17:40:32.592Z,0.80
2019-04-04T17:43:03.692Z,0.80
2019-04-04T17:45:34.648Z,0.97
2019-04-04T17:48:05.075Z,0.70
2019-04-04T17:50:33.871Z,1.03
2019-04-04T17:53:03.520Z,0.87
2019-04-04T17:55:33.587Z,0.80
2019-04-04T17:58:02.570Z,0.73
2019-04-04T18:00:31.462Z,1.03
2019-04-04T18:03:01.796Z,0.87
2019-04-04T18:05:30.434Z,1.03
2019-04-04T18:07:59.398Z,0.90
2019-04-04T18:10:30.601Z,1.10
2019-04-04T18:13:04.622Z,0.80
2019-04-04T18:15:38.486Z,0.90
2019-04-04T18:18:09.383Z,1.00
2019-04-04T18:20:39.164Z,0.80
2019-04-04T18:23:15.102Z,0.70
2019-04-04T18:25:43.712Z,0.83
2019-04-04T18:28:12.394Z,0.80
2019-04-04T18:30:45.053Z,0.70
2019-04-04T18:33:15.372Z,0.70
2019-04-04T18:35:47.522Z,0.60
2019-04-04T18:38:20.665Z,0.83
2019-04-04T18:40:55.092Z,0.60
2019-04-04T18:43:23.937Z,0.70
2019-04-04T18:45:53.749Z,0.80
2019-04-04T18:48:25.196Z,0.67
2019-04-04T18:50:55.596Z,0.70
2019-04-04T18:53:24.298Z,0.60
2019-04-04T18:55:54.725Z,0.70
2019-04-04T18:58:25.532Z,0.87
2019-04-04T19:00:55.605Z,0.80
2019-04-04T19:03:25.248Z,0.70
2019-04-04T19:05:56.646Z,0.73
2019-04-04T19:08:26.969Z,0.80
2019-04-04T19:10:57.696Z,0.70
2019-04-04T19:13:27.624Z,0.50
2019-04-04T19:16:01.311Z,0.87
2019-04-04T19:18:32.384Z,0.90
2019-04-04T19:21:02.681Z,0.93
2019-04-04T19:23:34.673Z,0.67
2019-04-04T19:26:08.301Z,0.70
2019-04-04T19:28:38.062Z,0.80
2019-04-04T19:31:06.948Z,0.60
2019-04-04T19:33:40.661Z,0.80
2019-04-04T19:36:11.871Z,1.00
2019-04-04T19:38:41.848Z,0.80
2019-04-04T19:41:16.630Z,0.77
2019-04-04T19:43:47.394Z,0.80
2019-04-04T19:46:20.398Z,0.67
2019-04-04T19:48:49.105Z,0.90
2019-04-04T19:51:20.778Z,0.80
2019-04-04T19:53:54.148Z,0.57
2019-04-04T19:56:24.304Z,0.80
2019-04-04T19:58:54.624Z,0.60
2019-04-04T20:01:25.648Z,0.60
2019-04-04T20:03:56.013Z,0.77
2019-04-04T20:06:24.739Z,0.57
2019-04-04T20:08:54.777Z,0.90
2019-04-04T20:11:24.846Z,0.67
2019-04-04T20:13:56.737Z,0.80
2019-04-04T20:16:30.102Z,0.80
2019-04-04T20:18:59.426Z,0.70
2019-04-04T20:21:30.283Z,0.80
2019-04-04T20:24:00.093Z,0.90
2019-04-04T20:26:34.980Z,0.80
2019-04-04T20:29:05.041Z,0.50
2019-04-04T20:31:36.225Z,0.90
2019-04-04T20:34:06.124Z,0.90
2019-04-04T20:36:42.998Z,1.00
2019-04-04T20:39:13.440Z,0.70
2019-04-04T20:41:44.382Z,0.90
2019-04-04T20:44:13.086Z,0.70
2019-04-04T20:46:43.717Z,0.70
2019-04-04T20:49:15.056Z,0.87
2019-04-04T20:51:49.391Z,0.90
2019-04-04T20:54:20.261Z,0.80
2019-04-04T20:56:52.702Z,0.70
2019-04-04T20:59:21.140Z,1.27
2019-04-04T21:01:50.370Z,0.90
2019-04-04T21:04:23.290Z,1.10
2019-04-04T21:06:55.035Z,0.80
2019-04-04T21:09:25.365Z,0.70
2019-04-04T21:11:54.953Z,0.90
2019-04-04T21:14:26.486Z,0.70
2019-04-04T21:17:01.174Z,1.00
2019-04-04T21:19:29.598Z,0.70
2019-04-04T21:21:59.357Z,0.67
2019-04-04T21:24:31.737Z,0.80
2019-04-04T21:27:01.459Z,0.70
2019-04-04T21:29:29.862Z,0.80
2019-04-04T21:32:05.515Z,0.73
2019-04-04T21:34:33.924Z,0.90
2019-04-04T21:37:03.997Z,0.80
2019-04-04T21:39:38.080Z,0.70
2019-04-04T21:42:06.534Z,0.70
2019-04-04T21:44:38.088Z,0.77
2019-04-04T21:47:09.373Z,0.90
2019-04-04T21:49:40.458Z,0.87
2019-04-04T21:52:08.873Z,0.70
2019-04-04T21:54:41.864Z,0.70
2019-04-04T21:57:18.696Z,0.80
2019-04-04T21:59:53.574Z,0.60
2019-04-04T22:02:22.553Z,0.70
2019-04-04T22:04:51.003Z,0.80
2019-04-04T22:07:28.639Z,0.80
2019-04-04T22:09:58.485Z,0.90
2019-04-04T22:12:26.900Z,0.70
2019-04-04T22:14:55.325Z,0.80
2019-04-04T22:17:43.178Z,0.80
2019-04-04T22:20:14.837Z,0.60
2019-04-04T22:22:47.253Z,0.70
2019-04-04T22:25:18.978Z,0.70
2019-04-04T22:27:51.282Z,0.63
2019-04-04T22:30:31.680Z,0.70
2019-04-04T22:33:04.881Z,0.97
2019-04-04T22:35:35.036Z,0.63
2019-04-04T22:38:06.248Z,0.70
2019-04-04T22:40:36.093Z,0.80
2019-04-04T22:43:07.926Z,0.57
2019-04-04T22:45:36.339Z,0.50
2019-04-04T22:48:08.601Z,0.63
2019-04-04T22:50:38.521Z,0.60
2019-04-04T22:53:08.735Z,0.50
2019-04-04T22:55:40.662Z,0.60
2019-04-04T22:58:11.887Z,0.80
2019-04-04T23:00:43.825Z,0.70
2019-04-04T23:03:17.200Z,0.70
2019-04-04T23:05:45.634Z,0.70
2019-04-04T23:08:17.117Z,0.80
2019-04-04T23:10:48.517Z,0.90
2019-04-04T23:13:20.993Z,0.90
2019-04-04T23:15:55.361Z,0.70
2019-04-04T23:18:30.485Z,0.90
2019-04-04T23:20:59.239Z,0.80
2019-04-04T23:23:27.930Z,0.80
2019-04-04T23:26:00.070Z,0.73
2019-04-04T23:28:32.959Z,0.90
2019-04-04T23:31:04.305Z,0.70
2019-04-04T23:33:32.745Z,0.80
2019-04-04T23:36:06.176Z,0.60
2019-04-04T23:38:37.592Z,0.80
2019-04-04T23:41:07.137Z,0.80
2019-04-04T23:43:37.304Z,0.90
2019-04-04T23:46:07.066Z,0.60
2019-04-04T23:48:39.989Z,0.70
2019-04-04T23:51:10.036Z,0.80
2019-04-04T23:53:40.073Z,0.83
2019-04-04T23:56:09.537Z,0.90
2019-04-04T23:58:37.949Z,0.87
